createdAt,value
2023-04-19T00:00:18.874Z,14.57
2023-04-19T00:02:55.635Z,33.90
2023-04-19T00:05:32.524Z,32.58
2023-04-19T00:08:09.024Z,23.63
2023-04-19T00:10:45.331Z,16.75
2023-04-19T00:13:21.732Z,26.45
2023-04-19T00:15:58.351Z,23.00
2023-04-19T00:18:34.934Z,23.92
2023-04-19T00:21:11.177Z,22.73
2023-04-19T00:23:47.466Z,22.35
2023-04-19T00:26:23.921Z,16.00
2023-04-19T00:29:01.822Z,18.55
2023-04-19T00:31:39.199Z,25.65
2023-04-19T00:34:15.778Z,17.90
2023-04-19T00:36:51.982Z,19.50
2023-04-19T00:39:28.700Z,23.20
2023-04-19T00:42:05.226Z,21.30
2023-04-19T00:44:42.345Z,13.85
2023-04-19T00:47:18.636Z,20.40
2023-04-19T00:49:55.430Z,18.48
2023-04-19T00:52:33.504Z,17.50
2023-04-19T00:55:10.303Z,20.73
2023-04-19T00:57:47.517Z,18.35
2023-04-19T01:00:25.910Z,15.18
2023-04-19T01:03:03.703Z,21.65
2023-04-19T01:05:40.276Z,18.63
2023-04-19T01:08:16.625Z,17.02
2023-04-19T01:10:54.202Z,20.13
2023-04-19T01:13:30.817Z,20.80
2023-04-19T01:16:07.405Z,14.55
2023-04-19T01:18:44.357Z,21.45
2023-04-19T01:21:21.958Z,15.07
2023-04-19T01:23:58.238Z,21.27
2023-04-19T01:26:34.592Z,19.30
2023-04-19T01:29:11.721Z,17.13
2023-04-19T01:31:52.930Z,14.27
2023-04-19T01:34:29.396Z,16.10
2023-04-19T01:37:06.460Z,12.77
2023-04-19T01:39:43.350Z,12.70
2023-04-19T01:42:19.898Z,10.65
2023-04-19T01:44:56.056Z,15.43
2023-04-19T01:47:32.414Z,13.30
2023-04-19T01:50:09.325Z,13.27
2023-04-19T01:52:45.696Z,9.82
2023-04-19T01:55:22.334Z,12.98
2023-04-19T01:57:59.138Z,14.70
2023-04-19T02:00:35.557Z,10.65
2023-04-19T02:03:14.377Z,13.47
2023-04-19T02:05:51.969Z,12.10
2023-04-19T02:08:31.651Z,12.27
2023-04-19T02:11:15.357Z,13.95
2023-04-19T02:13:51.735Z,13.77
2023-04-19T02:16:28.176Z,18.75
2023-04-19T02:19:04.796Z,11.75
2023-04-19T02:21:42.404Z,11.45
2023-04-19T02:24:18.847Z,14.30
2023-04-19T02:26:55.245Z,16.48
2023-04-19T02:29:32.770Z,11.43
2023-04-19T02:32:09.667Z,12.75
2023-04-19T02:34:47.507Z,18.40
2023-04-19T02:37:23.886Z,25.23
2023-04-19T02:40:00.206Z,20.08
2023-04-19T02:42:38.586Z,32.58
2023-04-19T02:45:15.040Z,17.83
2023-04-19T02:47:51.427Z,19.13
2023-04-19T02:50:27.854Z,17.27
2023-04-19T02:53:04.120Z,22.42
2023-04-19T02:55:42.374Z,17.92
2023-04-19T02:58:25.149Z,25.55
2023-04-19T03:01:14.700Z,21.20
2023-04-19T03:03:51.138Z,21.10
2023-04-19T03:06:28.066Z,33.22
2023-04-19T03:09:04.371Z,22.10
2023-04-19T03:11:40.794Z,19.95
2023-04-19T03:14:17.343Z,30.80
2023-04-19T03:16:53.547Z,19.15
2023-04-19T03:19:30.689Z,23.98
2023-04-19T03:22:07.055Z,22.05
2023-04-19T03:24:43.762Z,23.13
2023-04-19T03:27:30.739Z,27.52
2023-04-19T03:30:12.611Z,15.35
2023-04-19T03:32:51.469Z,29.70
2023-04-19T03:35:30.316Z,22.58
2023-04-19T03:38:13.816Z,22.83
2023-04-19T03:40:50.641Z,14.45
2023-04-19T03:43:28.160Z,15.77
2023-04-19T03:46:04.905Z,21.27
2023-04-19T03:51:36.845Z,21.25
2023-04-19T03:54:13.356Z,12.30
2023-04-19T03:56:49.691Z,17.15
2023-04-19T03:59:26.072Z,12.85
2023-04-19T04:02:03.614Z,22.33
2023-04-19T04:04:40.208Z,16.05
2023-04-19T04:07:17.925Z,14.15
2023-04-19T04:09:55.079Z,39.38
2023-04-19T04:12:31.697Z,49.80
2023-04-19T04:15:09.782Z,22.65
2023-04-19T04:17:51.166Z,22.45
2023-04-19T04:20:28.941Z,17.98
2023-04-19T04:23:13.868Z,19.15
2023-04-19T04:26:01.015Z,16.90
2023-04-19T04:28:47.316Z,18.05
2023-04-19T04:31:25.303Z,20.10
2023-04-19T04:34:02.590Z,20.98
2023-04-19T04:36:41.168Z,37.95
2023-04-19T04:39:17.748Z,36.80
2023-04-19T04:41:53.746Z,35.63
2023-04-19T04:44:30.005Z,45.78
2023-04-19T04:47:06.605Z,47.53
2023-04-19T04:49:49.489Z,22.40
2023-04-19T04:52:25.967Z,28.52
2023-04-19T04:55:16.169Z,18.15
2023-04-19T04:57:53.986Z,24.63
2023-04-19T05:00:37.897Z,16.42
2023-04-19T05:03:17.526Z,21.52
2023-04-19T05:05:59.514Z,30.77
2023-04-19T05:08:35.886Z,26.40
2023-04-19T05:11:38.126Z,22.55
2023-04-19T05:14:15.326Z,24.77
2023-04-19T05:16:52.403Z,27.08
2023-04-19T05:19:29.154Z,26.00
2023-04-19T05:22:12.150Z,34.47
2023-04-19T05:24:49.921Z,24.80
2023-04-19T05:27:27.114Z,22.45
2023-04-19T05:30:07.617Z,16.23
2023-04-19T05:32:52.090Z,11.38
2023-04-19T05:35:28.514Z,15.43
2023-04-19T05:38:04.650Z,12.13
2023-04-19T05:40:41.101Z,13.70
2023-04-19T05:43:17.603Z,17.40
2023-04-19T05:45:53.788Z,11.07
2023-04-19T05:48:31.347Z,19.50
2023-04-19T05:51:18.302Z,15.05
2023-04-19T05:54:03.900Z,10.23
2023-04-19T05:56:40.488Z,12.25
2023-04-19T05:59:17.112Z,23.33
2023-04-19T06:01:55.463Z,16.77
2023-04-19T06:04:31.671Z,23.90
2023-04-19T06:07:21.702Z,27.17
2023-04-19T06:10:06.130Z,22.63
2023-04-19T06:12:42.319Z,51.03
2023-04-19T06:15:19.436Z,43.65
2023-04-19T06:17:58.052Z,24.70
2023-04-19T06:20:37.146Z,50.50
2023-04-19T06:23:14.166Z,36.88
2023-04-19T06:25:50.650Z,16.15
2023-04-19T06:28:26.952Z,22.20
2023-04-19T06:31:04.147Z,18.65
2023-04-19T06:33:40.321Z,19.17
2023-04-19T06:36:16.763Z,20.30
2023-04-19T06:38:53.243Z,16.17
2023-04-19T06:41:29.902Z,23.50
2023-04-19T06:44:06.730Z,18.25
2023-04-19T06:46:43.193Z,19.88
2023-04-19T06:49:19.608Z,15.88
2023-04-19T06:51:56.300Z,15.07
2023-04-19T06:54:32.328Z,17.30
2023-04-19T06:57:08.643Z,21.98
2023-04-19T06:59:45.244Z,21.00
2023-04-19T07:02:21.671Z,13.75
2023-04-19T07:04:57.816Z,10.45
2023-04-19T07:07:33.953Z,9.52
2023-04-19T07:10:10.628Z,18.45
2023-04-19T07:12:46.883Z,19.35
2023-04-19T07:15:23.271Z,19.75
2023-04-19T07:17:59.708Z,19.70
2023-04-19T07:20:36.129Z,10.27
2023-04-19T07:23:12.571Z,9.75
2023-04-19T07:25:48.934Z,7.13
2023-04-19T07:28:25.303Z,7.70
2023-04-19T07:31:01.481Z,12.75
2023-04-19T07:33:37.936Z,8.90
2023-04-19T07:36:14.383Z,15.73
2023-04-19T07:38:50.777Z,12.70
2023-04-19T07:41:27.111Z,14.40
2023-04-19T07:44:03.236Z,12.43
2023-04-19T07:46:43.892Z,11.80
2023-04-19T07:49:20.412Z,22.20
2023-04-19T07:51:56.595Z,10.63
2023-04-19T07:54:32.718Z,11.70
2023-04-19T07:57:09.256Z,16.83
2023-04-19T07:59:45.372Z,9.77
2023-04-19T08:02:21.820Z,14.45
2023-04-19T08:04:58.319Z,9.57
2023-04-19T08:07:35.000Z,9.63
2023-04-19T08:10:11.833Z,12.02
2023-04-19T08:13:03.790Z,11.90
2023-04-19T08:18:21.076Z,14.48
2023-04-19T08:20:58.170Z,11.32
2023-04-19T08:23:45.034Z,9.90
2023-04-19T08:26:24.238Z,10.45
2023-04-19T08:29:00.601Z,15.45
2023-04-19T08:31:36.955Z,12.38
2023-04-19T08:34:13.250Z,14.25
2023-04-19T08:37:00.108Z,13.27
2023-04-19T08:39:39.880Z,11.30
2023-04-19T08:42:28.780Z,12.15
2023-04-19T08:45:27.051Z,11.27
2023-04-19T08:48:05.705Z,7.82
2023-04-19T08:50:56.063Z,18.58
2023-04-19T08:53:39.746Z,18.75
2023-04-19T08:56:27.760Z,13.63
2023-04-19T08:59:18.464Z,8.98
2023-04-19T09:02:00.801Z,21.05
2023-04-19T09:04:37.931Z,11.18
2023-04-19T09:07:28.068Z,20.13
2023-04-19T09:10:07.368Z,15.10
2023-04-19T09:12:59.125Z,17.83
2023-04-19T09:15:41.231Z,14.45
2023-04-19T09:18:18.642Z,10.00
2023-04-19T09:20:57.868Z,13.05
2023-04-19T09:26:23.665Z,9.43
2023-04-19T09:29:06.227Z,13.38
2023-04-19T09:31:58.330Z,8.82
2023-04-19T09:34:34.381Z,10.70
2023-04-19T09:37:22.758Z,11.07
2023-04-19T09:40:26.315Z,11.05
2023-04-19T09:43:17.892Z,14.38
2023-04-19T09:45:59.808Z,8.60
2023-04-19T09:48:36.570Z,11.95
2023-04-19T09:51:14.523Z,5.75
2023-04-19T09:53:50.920Z,5.40
2023-04-19T09:56:27.326Z,8.85
2023-04-19T09:59:19.930Z,7.05
2023-04-19T10:01:58.932Z,8.00
2023-04-19T10:04:54.644Z,10.00
2023-04-19T10:07:33.348Z,6.97
2023-04-19T10:10:19.383Z,8.40
2023-04-19T10:13:18.276Z,8.73
2023-04-19T10:16:01.860Z,9.73
2023-04-19T10:18:52.298Z,10.65
2023-04-19T10:21:29.201Z,12.98
2023-04-19T10:24:06.561Z,12.85
2023-04-19T10:27:14.059Z,12.73
2023-04-19T10:30:01.400Z,10.50
2023-04-19T10:32:42.891Z,7.68
2023-04-19T10:35:38.015Z,6.82
2023-04-19T10:38:15.862Z,8.82
2023-04-19T10:40:55.616Z,19.38
2023-04-19T10:43:33.971Z,8.25
2023-04-19T10:46:37.983Z,11.95
2023-04-19T10:49:14.858Z,6.07
2023-04-19T10:51:54.283Z,10.23
2023-04-19T10:57:15.429Z,5.55
2023-04-19T11:00:25.157Z,7.65
2023-04-19T11:03:43.123Z,9.75
2023-04-19T11:06:20.990Z,5.70
2023-04-19T11:08:57.573Z,5.65
2023-04-19T11:11:37.554Z,5.55
2023-04-19T11:14:13.857Z,8.75
2023-04-19T11:16:50.480Z,6.20
2023-04-19T11:19:26.894Z,7.10
2023-04-19T11:22:03.976Z,7.28
2023-04-19T11:24:47.048Z,10.57
2023-04-19T11:27:23.608Z,3.78
2023-04-19T11:30:09.155Z,6.53
2023-04-19T11:32:54.696Z,7.38
2023-04-19T11:35:31.536Z,6.10
2023-04-19T11:38:07.917Z,15.05
2023-04-19T11:40:44.246Z,10.20
2023-04-19T11:43:20.514Z,8.48
2023-04-19T11:46:08.102Z,4.15
2023-04-19T11:48:52.589Z,11.85
2023-04-19T11:51:29.231Z,4.18
2023-04-19T11:54:14.390Z,5.63
2023-04-19T11:57:05.973Z,21.13
2023-04-19T12:00:07.184Z,8.18
2023-04-19T12:02:53.121Z,3.53
2023-04-19T12:05:30.046Z,10.63
2023-04-19T12:08:11.156Z,15.05
2023-04-19T12:10:58.062Z,10.50
2023-04-19T12:13:35.865Z,9.13
2023-04-19T12:16:12.935Z,5.70
2023-04-19T12:18:51.087Z,4.15
2023-04-19T12:21:32.414Z,6.93
2023-04-19T12:24:08.940Z,12.13
2023-04-19T12:26:56.582Z,8.93
2023-04-19T12:29:33.711Z,11.13
2023-04-19T12:32:10.717Z,14.18
2023-04-19T12:34:47.020Z,12.65
2023-04-19T12:37:23.977Z,13.23
2023-04-19T12:40:00.515Z,15.02
2023-04-19T12:42:36.770Z,6.22
2023-04-19T12:45:13.653Z,12.65
2023-04-19T12:47:50.235Z,5.70
2023-04-19T12:50:26.224Z,26.77
2023-04-19T12:53:02.678Z,8.15
2023-04-19T12:55:40.082Z,31.40
2023-04-19T12:58:17.796Z,19.77
2023-04-19T13:00:54.042Z,18.50
2023-04-19T13:03:32.425Z,11.52
2023-04-19T13:06:10.504Z,9.38
2023-04-19T13:08:47.901Z,13.60
2023-04-19T13:11:24.465Z,6.32
2023-04-19T13:14:00.782Z,7.60
2023-04-19T13:16:37.207Z,13.55
2023-04-19T13:19:13.565Z,8.02
2023-04-19T13:21:49.609Z,4.40
2023-04-19T13:24:25.755Z,8.20
2023-04-19T13:27:02.317Z,19.98
2023-04-19T13:29:38.618Z,10.32
2023-04-19T13:32:15.037Z,10.02
2023-04-19T13:34:51.768Z,10.90
2023-04-19T13:37:28.181Z,9.05
2023-04-19T13:40:18.570Z,4.88
2023-04-19T13:42:56.223Z,7.55
2023-04-19T13:45:32.337Z,5.80
2023-04-19T13:48:08.977Z,16.52
2023-04-19T13:50:45.423Z,5.60
2023-04-19T13:53:22.645Z,12.70
2023-04-19T13:55:58.873Z,19.88
2023-04-19T13:58:36.730Z,9.13
2023-04-19T14:01:13.009Z,10.98
2023-04-19T14:03:49.629Z,17.95
2023-04-19T14:06:25.853Z,17.10
2023-04-19T14:09:02.232Z,4.28
2023-04-19T14:11:38.591Z,6.72
2023-04-19T14:14:15.522Z,17.98
2023-04-19T14:16:51.754Z,17.13
2023-04-19T14:19:28.036Z,10.82
2023-04-19T14:22:04.306Z,16.23
2023-04-19T14:24:40.726Z,17.17
2023-04-19T14:27:16.912Z,11.20
2023-04-19T14:29:53.252Z,13.85
2023-04-19T14:32:29.343Z,7.53
2023-04-19T14:35:07.718Z,4.18
2023-04-19T14:37:43.798Z,15.83
2023-04-19T14:40:20.393Z,9.07
2023-04-19T14:42:56.402Z,6.68
2023-04-19T14:45:32.640Z,10.73
2023-04-19T14:48:09.115Z,8.38
2023-04-19T14:50:45.664Z,11.60
2023-04-19T14:53:21.878Z,11.73
2023-04-19T14:55:57.924Z,9.00
2023-04-19T14:58:34.323Z,7.97
2023-04-19T15:01:14.521Z,5.43
2023-04-19T15:04:02.288Z,11.15
2023-04-19T15:06:38.334Z,6.88
2023-04-19T15:09:14.722Z,12.13
2023-04-19T15:11:50.875Z,5.20
2023-04-19T15:14:27.279Z,13.15
2023-04-19T15:17:03.809Z,9.93
2023-04-19T15:19:49.337Z,4.90
2023-04-19T15:22:44.699Z,7.85
2023-04-19T15:25:20.887Z,18.80
2023-04-19T15:27:56.855Z,9.07
2023-04-19T15:30:33.099Z,9.10
2023-04-19T15:33:09.560Z,8.90
2023-04-19T15:35:50.080Z,11.85
2023-04-19T15:38:29.322Z,9.25
2023-04-19T15:41:05.763Z,9.95
2023-04-19T15:43:42.080Z,9.30
2023-04-19T15:46:18.582Z,11.98
2023-04-19T15:48:55.006Z,9.90
2023-04-19T15:51:31.409Z,17.15
2023-04-19T15:54:09.029Z,13.88
2023-04-19T15:56:45.186Z,11.80
2023-04-19T15:59:21.544Z,15.40
2023-04-19T16:01:58.255Z,8.82
2023-04-19T16:04:34.738Z,7.95
2023-04-19T16:07:11.183Z,7.10
2023-04-19T16:09:47.520Z,8.32
2023-04-19T16:12:25.206Z,11.43
2023-04-19T16:15:01.616Z,7.57
2023-04-19T16:17:37.823Z,6.90
2023-04-19T16:20:14.229Z,12.57
2023-04-19T16:22:50.652Z,12.52
2023-04-19T16:25:27.653Z,16.30
2023-04-19T16:28:03.832Z,36.30
2023-04-19T16:30:40.278Z,37.13
2023-04-19T16:33:16.503Z,34.40
2023-04-19T16:35:53.007Z,26.05
2023-04-19T16:38:29.329Z,22.05
2023-04-19T16:41:05.815Z,12.75
2023-04-19T16:43:42.119Z,19.65
2023-04-19T16:46:18.466Z,36.15
2023-04-19T16:48:55.424Z,37.40
2023-04-19T16:51:31.666Z,23.63
2023-04-19T16:54:08.005Z,30.10
2023-04-19T16:56:44.278Z,26.60
2023-04-19T16:59:20.673Z,42.83
2023-04-19T17:02:00.542Z,33.60
2023-04-19T17:04:38.662Z,37.00
2023-04-19T17:07:14.986Z,44.30
2023-04-19T17:09:51.369Z,51.08
2023-04-19T17:12:27.858Z,37.00
2023-04-19T17:15:05.256Z,37.85
2023-04-19T17:17:42.192Z,24.00
2023-04-19T17:20:18.509Z,21.95
2023-04-19T17:22:55.448Z,23.92
2023-04-19T17:25:31.844Z,31.55
2023-04-19T17:28:07.931Z,25.50
2023-04-19T17:30:44.326Z,22.85
2023-04-19T17:33:20.660Z,17.35
2023-04-19T17:35:57.318Z,25.20
2023-04-19T17:38:33.467Z,16.40
2023-04-19T17:41:15.444Z,25.40
2023-04-19T17:43:51.694Z,19.50
2023-04-19T17:46:28.033Z,23.33
2023-04-19T17:49:04.435Z,22.10
2023-04-19T17:51:40.752Z,20.90
2023-04-19T17:54:17.361Z,38.40
2023-04-19T17:56:53.820Z,29.55
2023-04-19T17:59:30.444Z,23.83
2023-04-19T18:02:08.169Z,24.33
2023-04-19T18:04:47.287Z,38.60
2023-04-19T18:07:23.751Z,29.63
2023-04-19T18:10:00.197Z,37.70
2023-04-19T18:12:36.687Z,28.50
2023-04-19T18:15:13.126Z,23.20
2023-04-19T18:17:49.652Z,25.92
2023-04-19T18:20:26.384Z,26.90
2023-04-19T18:23:02.920Z,14.23
2023-04-19T18:25:39.270Z,20.58
2023-04-19T18:28:15.724Z,17.63
2023-04-19T18:30:52.064Z,21.55
2023-04-19T18:33:28.675Z,18.08
2023-04-19T18:36:05.609Z,23.42
2023-04-19T18:38:41.671Z,24.00
2023-04-19T18:41:18.024Z,21.10
2023-04-19T18:46:35.766Z,21.27
2023-04-19T18:49:12.119Z,12.25
2023-04-19T18:51:49.788Z,17.63
2023-04-19T18:54:26.319Z,25.33
2023-04-19T18:57:19.027Z,32.67
2023-04-19T18:59:58.293Z,27.08
2023-04-19T19:02:36.658Z,28.15
2023-04-19T19:05:15.312Z,21.90
2023-04-19T19:07:52.801Z,29.85
2023-04-19T19:13:08.629Z,25.52
2023-04-19T19:15:44.687Z,30.08
2023-04-19T19:18:21.092Z,27.75
2023-04-19T19:20:59.689Z,21.90
2023-04-19T19:23:38.378Z,14.15
2023-04-19T19:26:18.706Z,14.95
2023-04-19T19:28:56.649Z,20.65
2023-04-19T19:31:32.883Z,19.48
2023-04-19T19:34:24.180Z,16.52
2023-04-19T19:37:03.725Z,22.05
2023-04-19T19:39:40.285Z,29.67
2023-04-19T19:42:17.979Z,27.65
2023-04-19T19:44:54.978Z,30.13
2023-04-19T19:47:34.612Z,35.38
2023-04-19T19:52:51.250Z,29.15
2023-04-19T19:55:28.255Z,30.20
2023-04-19T20:03:35.945Z,32.35
2023-04-19T20:07:02.969Z,41.03
2023-04-19T20:09:10.600Z,26.17
2023-04-19T20:11:46.778Z,30.98
2023-04-19T20:14:24.331Z,28.95
2023-04-19T20:17:02.548Z,32.92
2023-04-19T20:19:39.153Z,38.47
2023-04-19T20:22:15.210Z,46.10
2023-04-19T20:24:52.409Z,41.60
2023-04-19T20:27:28.815Z,49.72
2023-04-19T20:30:08.028Z,46.60
2023-04-19T20:32:44.704Z,38.85
2023-04-19T20:35:20.980Z,39.80
2023-04-19T20:38:01.521Z,39.28
2023-04-19T20:40:37.720Z,31.70
2023-04-19T20:43:16.424Z,31.92
2023-04-19T20:45:52.591Z,33.35
2023-04-19T20:48:29.468Z,38.05
2023-04-19T20:51:05.776Z,39.05
2023-04-19T20:53:42.426Z,30.08
2023-04-19T20:56:18.806Z,26.50
2023-04-19T20:58:55.965Z,36.20
2023-04-19T21:01:33.346Z,31.25
2023-04-19T21:04:09.807Z,29.38
2023-04-19T21:06:46.415Z,31.15
2023-04-19T21:09:22.601Z,28.90
2023-04-19T21:11:58.896Z,29.85
2023-04-19T21:14:35.304Z,36.13
2023-04-19T21:17:11.628Z,31.33
2023-04-19T21:19:48.040Z,26.85
2023-04-19T21:22:24.402Z,29.85
2023-04-19T21:25:00.902Z,24.42
2023-04-19T21:27:40.647Z,30.27
2023-04-19T21:30:16.800Z,17.75
2023-04-19T21:32:53.367Z,25.45
2023-04-19T21:35:29.908Z,20.38
2023-04-19T21:38:06.358Z,40.15
2023-04-19T21:40:42.983Z,31.75
2023-04-19T21:43:19.443Z,29.30
2023-04-19T21:45:55.533Z,30.52
2023-04-19T21:48:33.393Z,39.08
2023-04-19T21:51:12.486Z,36.17
2023-04-19T21:53:48.774Z,34.67
2023-04-19T21:56:25.060Z,33.05
2023-04-19T21:59:01.598Z,32.15
2023-04-19T22:01:37.948Z,27.30
2023-04-19T22:04:15.260Z,28.67
2023-04-19T22:06:51.798Z,48.78
2023-04-19T22:09:28.620Z,62.80
2023-04-19T22:12:06.008Z,35.22
2023-04-19T22:14:42.321Z,37.72
2023-04-19T22:17:19.369Z,34.08
2023-04-19T22:19:55.808Z,32.45
2023-04-19T22:22:32.181Z,30.77
2023-04-19T22:25:09.031Z,27.65
2023-04-19T22:27:48.112Z,34.42
2023-04-19T22:30:24.211Z,24.20
2023-04-19T22:33:00.850Z,32.70
2023-04-19T22:35:37.055Z,26.63
2023-04-19T22:38:13.400Z,31.23
2023-04-19T22:40:49.877Z,27.50
2023-04-19T22:43:26.341Z,15.85
2023-04-19T22:46:02.827Z,22.15
2023-04-19T22:48:38.965Z,28.13
2023-04-19T22:51:17.592Z,20.70
2023-04-19T22:53:54.033Z,28.15
2023-04-19T22:56:30.393Z,30.45
2023-04-19T22:59:07.735Z,23.25
2023-04-19T23:01:43.865Z,25.70
2023-04-19T23:04:20.562Z,28.23
2023-04-19T23:06:57.052Z,35.72
2023-04-19T23:09:33.066Z,37.40
2023-04-19T23:12:09.473Z,28.48
2023-04-19T23:14:47.838Z,30.80
2023-04-19T23:17:24.542Z,24.80
2023-04-19T23:20:19.333Z,27.20
2023-04-19T23:22:56.083Z,24.45
2023-04-19T23:25:32.231Z,22.42
2023-04-19T23:28:10.340Z,23.30
2023-04-19T23:30:48.082Z,29.65
2023-04-19T23:33:24.686Z,16.98
2023-04-19T23:36:00.797Z,15.88
2023-04-19T23:38:37.083Z,20.48
2023-04-19T23:41:13.402Z,13.50
2023-04-19T23:43:49.497Z,16.50
2023-04-19T23:46:25.994Z,17.35
2023-04-19T23:49:02.333Z,17.60
2023-04-19T23:51:38.650Z,26.85
2023-04-19T23:54:16.120Z,30.98
2023-04-19T23:56:52.893Z,26.13
2023-04-19T23:59:30.021Z,19.80
